createdAt,value
2023-05-11T00:02:34.361Z,3.60
2023-05-11T00:05:12.142Z,3.50
2023-05-11T00:07:47.483Z,3.60
2023-05-11T00:10:25.093Z,3.60
2023-05-11T00:13:01.424Z,3.30
2023-05-11T00:15:39.815Z,3.40
2023-05-11T00:18:14.380Z,3.70
2023-05-11T00:20:50.700Z,3.40
2023-05-11T00:23:28.654Z,3.10
2023-05-11T00:26:05.217Z,3.30
2023-05-11T00:28:43.242Z,3.30
2023-05-11T00:31:20.246Z,3.10
2023-05-11T00:33:58.259Z,3.60
2023-05-11T00:36:34.166Z,3.20
2023-05-11T00:39:18.517Z,3.20
2023-05-11T00:41:54.892Z,3.20
2023-05-11T00:44:33.964Z,3.70
2023-05-11T00:47:09.673Z,3.50
2023-05-11T00:49:45.415Z,3.00
2023-05-11T00:52:21.905Z,3.30
2023-05-11T00:54:58.765Z,3.20
2023-05-11T00:57:37.230Z,3.50
2023-05-11T01:00:18.324Z,3.20
2023-05-11T01:02:57.050Z,3.20
2023-05-11T01:05:46.187Z,3.20
2023-05-11T01:08:27.585Z,3.40
2023-05-11T01:11:13.313Z,3.20
2023-05-11T01:13:57.230Z,3.20
2023-05-11T01:16:36.949Z,3.20
2023-05-11T01:19:26.635Z,3.20
2023-05-11T01:22:02.668Z,3.50
2023-05-11T01:25:02.872Z,3.20
2023-05-11T01:27:57.263Z,3.30
2023-05-11T01:30:34.866Z,3.40
2023-05-11T01:33:18.024Z,3.70
2023-05-11T01:36:00.261Z,3.20
2023-05-11T01:38:41.870Z,3.60
2023-05-11T01:41:22.968Z,3.20
2023-05-11T01:44:05.883Z,3.40
2023-05-11T01:46:42.832Z,3.30
2023-05-11T01:49:21.652Z,3.70
2023-05-11T01:51:58.687Z,3.60
2023-05-11T01:54:37.749Z,3.30
2023-05-11T01:57:14.789Z,3.40
2023-05-11T01:59:53.629Z,3.10
2023-05-11T02:02:32.632Z,3.70
2023-05-11T02:05:09.852Z,3.50
2023-05-11T02:07:50.537Z,3.80
2023-05-11T02:10:30.424Z,3.40
2023-05-11T02:13:10.558Z,3.40
2023-05-11T02:15:48.024Z,3.60
2023-05-11T02:18:25.647Z,3.60
2023-05-11T02:21:07.344Z,3.40
2023-05-11T02:23:48.009Z,3.40
2023-05-11T02:26:24.094Z,3.50
2023-05-11T02:29:01.781Z,3.80
2023-05-11T02:31:45.786Z,3.60
2023-05-11T02:34:26.656Z,4.00
2023-05-11T02:37:08.450Z,3.80
2023-05-11T02:39:48.949Z,3.80
2023-05-11T02:42:32.253Z,3.60
2023-05-11T02:45:11.095Z,3.50
2023-05-11T02:47:55.180Z,3.60
2023-05-11T02:50:37.390Z,4.10
2023-05-11T02:53:18.401Z,3.60
2023-05-11T02:55:58.674Z,4.70
2023-05-11T02:58:34.629Z,4.80
2023-05-11T03:01:32.973Z,3.60
2023-05-11T03:04:11.626Z,3.60
2023-05-11T03:06:48.294Z,3.50
2023-05-11T03:09:25.421Z,3.60
2023-05-11T03:12:03.905Z,3.70
2023-05-11T03:14:43.914Z,4.00
2023-05-11T03:17:21.895Z,4.30
2023-05-11T03:20:03.784Z,4.00
2023-05-11T03:22:40.544Z,3.90
2023-05-11T03:25:18.165Z,3.70
2023-05-11T03:27:55.309Z,4.10
2023-05-11T03:30:32.041Z,3.80
2023-05-11T03:33:09.878Z,3.80
2023-05-11T03:35:48.990Z,4.20
2023-05-11T03:38:32.113Z,4.20
2023-05-11T03:41:09.516Z,3.80
2023-05-11T03:43:49.803Z,4.10
2023-05-11T03:46:30.214Z,3.90
2023-05-11T03:49:15.570Z,8.60
2023-05-11T03:51:52.030Z,5.70
2023-05-11T03:54:28.771Z,3.70
2023-05-11T03:57:03.927Z,4.10
2023-05-11T03:59:45.081Z,4.00
2023-05-11T04:02:25.903Z,4.00
2023-05-11T04:05:01.068Z,4.00
2023-05-11T04:07:36.777Z,3.80
2023-05-11T04:10:17.317Z,4.30
2023-05-11T04:12:54.376Z,4.20
2023-05-11T04:15:30.860Z,4.00
2023-05-11T04:18:07.738Z,3.50
2023-05-11T04:20:44.292Z,3.80
2023-05-11T04:23:20.225Z,4.60
2023-05-11T04:26:01.345Z,4.30
2023-05-11T04:28:39.390Z,4.00
2023-05-11T04:31:14.976Z,4.10
2023-05-11T04:33:52.453Z,3.80
2023-05-11T04:36:27.977Z,3.90
2023-05-11T04:39:06.933Z,3.80
2023-05-11T04:41:46.764Z,3.80
2023-05-11T04:44:22.167Z,3.90
2023-05-11T04:46:59.089Z,3.80
2023-05-11T04:49:34.453Z,3.60
2023-05-11T04:52:10.958Z,3.70
2023-05-11T04:54:49.048Z,4.00
2023-05-11T04:57:26.195Z,3.80
2023-05-11T05:00:02.526Z,3.90
2023-05-11T05:02:38.203Z,3.90
2023-05-11T05:05:17.619Z,3.80
2023-05-11T05:07:54.398Z,3.90
2023-05-11T05:10:31.833Z,3.90
2023-05-11T05:13:09.297Z,3.90
2023-05-11T05:15:45.966Z,4.20
2023-05-11T05:18:20.156Z,3.70
2023-05-11T05:20:57.669Z,3.50
2023-05-11T05:23:34.923Z,3.50
2023-05-11T05:26:16.620Z,3.80
2023-05-11T05:28:55.312Z,4.10
2023-05-11T05:31:33.543Z,3.30
2023-05-11T05:34:10.264Z,3.50
2023-05-11T05:36:46.818Z,3.30
2023-05-11T05:39:23.871Z,3.60
2023-05-11T05:42:00.258Z,3.60
2023-05-11T05:44:37.027Z,3.60
2023-05-11T05:47:12.624Z,3.70
2023-05-11T05:49:49.306Z,3.80
2023-05-11T05:52:24.507Z,3.40
2023-05-11T05:55:01.872Z,3.00
2023-05-11T05:57:38.665Z,3.10
2023-05-11T06:00:18.412Z,2.90
2023-05-11T06:02:58.185Z,3.10
2023-05-11T06:05:38.420Z,3.30
2023-05-11T06:08:15.382Z,3.40
2023-05-11T06:10:51.597Z,4.10
2023-05-11T06:13:29.279Z,3.20
2023-05-11T06:16:06.576Z,3.50
2023-05-11T06:18:43.727Z,3.20
2023-05-11T06:21:20.210Z,3.40
2023-05-11T06:23:57.312Z,3.10
2023-05-11T06:26:32.980Z,3.30
2023-05-11T06:29:10.557Z,3.00
2023-05-11T06:31:53.546Z,3.30
2023-05-11T06:34:31.047Z,2.80
2023-05-11T06:37:08.223Z,3.10
2023-05-11T06:39:43.929Z,3.10
2023-05-11T06:42:19.675Z,3.30
2023-05-11T06:44:56.862Z,2.90
2023-05-11T06:47:32.236Z,3.10
2023-05-11T06:50:08.103Z,2.60
2023-05-11T06:52:46.573Z,3.10
2023-05-11T06:55:22.215Z,2.70
2023-05-11T06:58:00.742Z,3.30
2023-05-11T07:00:36.240Z,2.80
2023-05-11T07:03:13.588Z,7.80
2023-05-11T07:05:49.330Z,2.80
2023-05-11T07:08:24.377Z,4.30
2023-05-11T07:11:02.212Z,2.80
2023-05-11T07:13:39.737Z,3.00
2023-05-11T07:16:15.704Z,2.70
2023-05-11T07:18:53.054Z,2.40
2023-05-11T07:21:27.664Z,2.70
2023-05-11T07:24:05.165Z,3.10
2023-05-11T07:26:41.290Z,2.70
2023-05-11T07:29:14.460Z,2.50
2023-05-11T07:31:50.380Z,2.60
2023-05-11T07:34:24.917Z,2.80
2023-05-11T07:37:04.924Z,2.60
2023-05-11T07:39:43.242Z,2.90
2023-05-11T07:42:17.586Z,3.20
2023-05-11T07:44:52.282Z,2.60
2023-05-11T07:47:29.773Z,2.40
2023-05-11T07:50:07.573Z,2.50
2023-05-11T07:52:42.775Z,2.50
2023-05-11T07:55:20.750Z,2.40
2023-05-11T07:58:00.902Z,2.70
2023-05-11T08:00:38.615Z,2.80
2023-05-11T08:03:16.456Z,2.40
2023-05-11T08:05:52.222Z,2.80
2023-05-11T08:08:29.076Z,2.60
2023-05-11T08:11:06.601Z,2.50
2023-05-11T08:13:42.560Z,2.30
2023-05-11T08:16:22.787Z,1.90
2023-05-11T08:19:02.215Z,2.00
2023-05-11T08:21:39.837Z,2.20
2023-05-11T08:24:16.413Z,1.90
2023-05-11T08:26:55.676Z,2.00
2023-05-11T08:29:31.367Z,2.10
2023-05-11T08:32:07.793Z,2.10
2023-05-11T08:34:45.833Z,2.00
2023-05-11T08:37:25.545Z,1.90
2023-05-11T08:40:04.538Z,1.80
2023-05-11T08:42:41.348Z,2.10
2023-05-11T08:45:19.418Z,2.00
2023-05-11T08:47:55.858Z,1.90
2023-05-11T08:50:32.458Z,1.80
2023-05-11T08:53:07.830Z,1.90
2023-05-11T08:55:45.169Z,2.20
2023-05-11T08:58:23.389Z,1.90
2023-05-11T09:01:01.385Z,2.00
2023-05-11T09:03:42.362Z,2.20
2023-05-11T09:06:18.870Z,2.10
2023-05-11T09:08:55.828Z,1.90
2023-05-11T09:11:32.708Z,1.90
2023-05-11T09:14:09.136Z,1.90
2023-05-11T09:16:43.193Z,2.40
2023-05-11T09:19:21.976Z,2.10
2023-05-11T09:21:59.929Z,2.00
2023-05-11T09:24:34.879Z,1.80
2023-05-11T09:29:59.713Z,1.90
2023-05-11T09:32:53.019Z,2.20
2023-05-11T09:35:31.644Z,2.10
2023-05-11T09:38:13.304Z,1.80
2023-05-11T09:40:55.361Z,2.00
2023-05-11T09:43:38.374Z,2.40
2023-05-11T09:46:25.621Z,2.00
2023-05-11T09:49:06.597Z,2.10
2023-05-11T09:51:44.530Z,2.20
2023-05-11T09:54:23.683Z,2.10
2023-05-11T09:57:01.162Z,1.80
2023-05-11T09:59:44.058Z,2.00
2023-05-11T10:02:25.950Z,22.10
2023-05-11T10:05:03.634Z,2.20
2023-05-11T10:07:40.334Z,2.00
2023-05-11T10:10:19.185Z,2.10
2023-05-11T10:12:57.452Z,2.00
2023-05-11T10:15:36.645Z,1.90
2023-05-11T10:18:12.561Z,2.00
2023-05-11T10:20:52.617Z,1.90
2023-05-11T10:23:28.355Z,2.00
2023-05-11T10:26:07.616Z,2.00
2023-05-11T10:28:43.738Z,2.50
2023-05-11T10:31:25.183Z,1.80
2023-05-11T10:34:03.762Z,1.90
2023-05-11T10:36:43.063Z,3.80
2023-05-11T10:39:18.485Z,1.90
2023-05-11T10:42:14.115Z,2.10
2023-05-11T10:45:18.828Z,2.30
2023-05-11T10:52:12.590Z,2.20
2023-05-11T10:55:26.471Z,1.90
2023-05-11T10:58:11.848Z,2.20
2023-05-11T11:01:21.250Z,2.50
2023-05-11T11:04:05.839Z,1.90
2023-05-11T11:06:44.144Z,2.30
2023-05-11T11:09:21.365Z,2.10
2023-05-11T11:12:14.626Z,1.90
2023-05-11T11:15:06.868Z,1.80
2023-05-11T11:17:42.646Z,1.80
2023-05-11T11:20:54.951Z,2.30
2023-05-11T11:24:10.848Z,1.90
2023-05-11T11:26:55.059Z,2.00
2023-05-11T11:29:33.407Z,1.90
2023-05-11T11:32:30.098Z,2.00
2023-05-11T11:35:08.611Z,1.90
2023-05-11T11:38:06.852Z,2.10
2023-05-11T11:40:51.418Z,1.90
2023-05-11T11:43:32.487Z,2.00
2023-05-11T11:46:11.790Z,2.00
2023-05-11T11:48:45.470Z,2.40
2023-05-11T11:51:23.084Z,4.40
2023-05-11T11:54:11.121Z,2.20
2023-05-11T11:56:48.038Z,2.70
2023-05-11T11:59:24.020Z,2.50
2023-05-11T12:02:02.795Z,2.10
2023-05-11T12:04:49.674Z,2.20
2023-05-11T12:07:27.871Z,2.30
2023-05-11T12:10:05.906Z,2.50
2023-05-11T12:12:47.042Z,2.00
2023-05-11T12:15:37.283Z,1.90
2023-05-11T12:18:28.296Z,2.30
2023-05-11T12:21:05.384Z,2.10
2023-05-11T12:23:53.096Z,2.20
2023-05-11T12:26:30.748Z,1.80
2023-05-11T12:29:17.803Z,5.40
2023-05-11T12:31:54.397Z,2.10
2023-05-11T12:34:29.562Z,2.00
2023-05-11T12:37:10.894Z,3.30
2023-05-11T12:39:47.014Z,2.20
2023-05-11T12:42:26.444Z,2.40
2023-05-11T12:45:03.633Z,2.20
2023-05-11T12:47:50.810Z,1.90
2023-05-11T12:50:27.399Z,2.10
2023-05-11T12:56:17.967Z,1.90
2023-05-11T12:58:53.122Z,1.90
2023-05-11T13:01:30.856Z,2.40
2023-05-11T13:04:10.062Z,2.10
2023-05-11T13:06:48.770Z,2.20
2023-05-11T13:09:30.056Z,2.00
2023-05-11T13:12:18.824Z,1.80
2023-05-11T13:15:15.236Z,2.20
2023-05-11T13:18:02.266Z,2.20
2023-05-11T13:20:39.087Z,2.00
2023-05-11T13:23:15.608Z,2.00
2023-05-11T13:25:59.386Z,2.70
2023-05-11T13:28:35.431Z,2.50
2023-05-11T13:31:11.115Z,2.70
2023-05-11T13:33:47.835Z,2.50
2023-05-11T13:36:24.028Z,2.10
2023-05-11T13:39:00.062Z,2.00
2023-05-11T13:41:35.268Z,1.90
2023-05-11T13:44:12.725Z,2.00
2023-05-11T13:46:48.987Z,2.20
2023-05-11T13:49:24.516Z,2.70
2023-05-11T13:52:01.298Z,2.90
2023-05-11T13:54:37.690Z,2.10
2023-05-11T13:57:17.640Z,2.10
2023-05-11T13:59:54.021Z,2.70
2023-05-11T14:02:31.189Z,2.40
2023-05-11T14:05:07.398Z,2.90
2023-05-11T14:07:48.122Z,2.10
2023-05-11T14:10:27.000Z,5.30
2023-05-11T14:13:03.965Z,1.80
2023-05-11T14:15:41.491Z,2.00
2023-05-11T14:18:17.484Z,1.90
2023-05-11T14:20:53.950Z,1.90
2023-05-11T14:23:31.589Z,2.60
2023-05-11T14:26:09.868Z,2.10
2023-05-11T14:28:48.379Z,2.40
2023-05-11T14:31:28.244Z,2.10
2023-05-11T14:34:04.607Z,2.20
2023-05-11T14:36:41.702Z,2.00
2023-05-11T14:39:18.536Z,2.40
2023-05-11T14:41:54.135Z,2.10
2023-05-11T14:44:30.560Z,2.90
2023-05-11T14:47:12.069Z,2.50
2023-05-11T14:49:49.228Z,2.00
2023-05-11T14:52:25.334Z,2.10
2023-05-11T14:55:01.723Z,2.20
2023-05-11T14:57:40.256Z,2.20
2023-05-11T15:00:21.241Z,2.50
2023-05-11T15:02:58.719Z,4.30
2023-05-11T15:05:35.048Z,3.00
2023-05-11T15:08:25.680Z,3.00
2023-05-11T15:11:04.942Z,2.20
2023-05-11T15:13:39.692Z,2.20
2023-05-11T15:16:16.459Z,1.90
2023-05-11T15:18:53.618Z,2.10
2023-05-11T15:21:30.700Z,2.20
2023-05-11T15:24:11.489Z,2.30
2023-05-11T15:26:49.038Z,2.00
2023-05-11T15:29:26.341Z,2.10
2023-05-11T15:32:02.752Z,2.10
2023-05-11T15:34:51.227Z,2.30
2023-05-11T15:37:37.082Z,2.40
2023-05-11T15:40:18.444Z,2.40
2023-05-11T15:42:52.807Z,2.00
2023-05-11T15:45:29.176Z,3.00
2023-05-11T15:48:07.011Z,3.10
2023-05-11T15:50:42.669Z,2.00
2023-05-11T15:53:18.561Z,2.10
2023-05-11T15:55:56.263Z,1.90
2023-05-11T15:58:33.165Z,3.20
2023-05-11T16:01:09.059Z,2.00
2023-05-11T16:03:44.106Z,3.20
2023-05-11T16:06:21.490Z,1.90
2023-05-11T16:08:57.026Z,2.00
2023-05-11T16:11:35.473Z,4.50
2023-05-11T16:14:12.748Z,5.30
2023-05-11T16:16:48.641Z,2.90
2023-05-11T16:19:25.700Z,2.20
2023-05-11T16:22:03.891Z,2.20
2023-05-11T16:24:42.453Z,2.10
2023-05-11T16:27:19.434Z,1.80
2023-05-11T16:29:55.365Z,2.10
2023-05-11T16:32:33.169Z,3.70
2023-05-11T16:35:09.861Z,2.50
2023-05-11T16:37:45.012Z,2.80
2023-05-11T16:40:22.034Z,10.20
2023-05-11T16:42:59.295Z,2.80
2023-05-11T16:45:44.140Z,2.40
2023-05-11T16:48:22.346Z,2.70
2023-05-11T16:50:59.425Z,2.10
2023-05-11T16:53:34.618Z,3.80
2023-05-11T16:56:12.492Z,2.30
2023-05-11T16:58:49.188Z,2.60
2023-05-11T17:01:27.157Z,2.90
2023-05-11T17:04:06.608Z,3.80
2023-05-11T17:06:43.711Z,2.70
2023-05-11T17:09:19.779Z,2.40
2023-05-11T17:11:58.543Z,2.20
2023-05-11T17:14:34.475Z,2.40
2023-05-11T17:17:10.616Z,3.10
2023-05-11T17:19:46.142Z,4.40
2023-05-11T17:22:24.275Z,7.00
2023-05-11T17:24:58.965Z,5.40
2023-05-11T17:27:38.139Z,8.50
2023-05-11T17:30:18.220Z,6.30
2023-05-11T17:32:56.705Z,6.10
2023-05-11T17:35:31.119Z,6.40
2023-05-11T17:38:07.847Z,5.00
2023-05-11T17:40:45.692Z,5.90
2023-05-11T17:43:23.818Z,7.00
2023-05-11T17:46:00.528Z,6.30
2023-05-11T17:48:40.245Z,5.90
2023-05-11T17:51:18.314Z,3.60
2023-05-11T17:53:54.823Z,3.10
2023-05-11T17:56:30.597Z,3.70
2023-05-11T17:59:10.576Z,3.20
2023-05-11T18:01:51.018Z,3.40
2023-05-11T18:04:26.605Z,3.20
2023-05-11T18:07:02.259Z,4.70
2023-05-11T18:09:37.409Z,7.90
2023-05-11T18:12:20.432Z,25.90
2023-05-11T18:15:01.142Z,34.70
2023-05-11T18:17:37.533Z,40.70
2023-05-11T18:20:20.466Z,27.60
2023-05-11T18:22:58.402Z,9.40
2023-05-11T18:25:34.043Z,6.50
2023-05-11T18:28:09.668Z,10.10
2023-05-11T18:30:46.430Z,4.80
2023-05-11T18:33:25.614Z,5.20
2023-05-11T18:36:02.075Z,5.60
2023-05-11T18:38:37.923Z,3.40
2023-05-11T18:41:12.436Z,6.00
2023-05-11T18:43:50.511Z,5.00
2023-05-11T18:46:25.870Z,5.30
2023-05-11T18:49:01.010Z,4.10
2023-05-11T18:51:38.061Z,3.70
2023-05-11T18:54:18.255Z,3.20
2023-05-11T18:56:54.630Z,4.00
2023-05-11T18:59:30.985Z,3.80
2023-05-11T19:02:10.186Z,5.10
2023-05-11T19:04:47.554Z,4.00
2023-05-11T19:07:22.433Z,3.70
2023-05-11T19:09:59.926Z,4.20
2023-05-11T19:12:36.870Z,4.00
2023-05-11T19:15:17.334Z,3.90
2023-05-11T19:17:53.009Z,3.70
2023-05-11T19:20:28.416Z,9.40
2023-05-11T19:23:04.919Z,4.90
2023-05-11T19:25:43.394Z,3.80
2023-05-11T19:28:20.413Z,4.30
2023-05-11T19:31:04.937Z,3.50
2023-05-11T19:33:41.307Z,3.50
2023-05-11T19:36:16.455Z,3.50
2023-05-11T19:38:54.874Z,4.00
2023-05-11T19:41:31.106Z,4.80
2023-05-11T19:44:07.968Z,3.80
2023-05-11T19:46:48.222Z,4.50
2023-05-11T19:49:26.518Z,4.40
2023-05-11T19:52:04.754Z,3.80
2023-05-11T19:54:43.532Z,4.00
2023-05-11T19:57:19.948Z,3.70
2023-05-11T19:59:56.553Z,4.00
2023-05-11T20:02:31.377Z,4.00
2023-05-11T20:05:12.477Z,4.10
2023-05-11T20:07:47.982Z,4.40
2023-05-11T20:10:34.610Z,4.20
2023-05-11T20:13:14.018Z,4.50
2023-05-11T20:15:54.240Z,4.20
2023-05-11T20:18:32.009Z,4.60
2023-05-11T20:21:16.446Z,4.80
2023-05-11T20:23:51.592Z,5.40
2023-05-11T20:26:29.211Z,5.20
2023-05-11T20:29:04.488Z,4.90
2023-05-11T20:31:47.654Z,5.40
2023-05-11T20:34:24.856Z,5.60
2023-05-11T20:37:13.621Z,7.50
2023-05-11T20:39:51.756Z,6.00
2023-05-11T20:42:25.386Z,5.90
2023-05-11T20:45:07.675Z,5.80
2023-05-11T20:47:45.058Z,5.10
2023-05-11T20:50:21.870Z,9.00
2023-05-11T20:52:58.786Z,5.60
2023-05-11T20:55:42.055Z,5.70
2023-05-11T20:58:23.329Z,5.50
2023-05-11T21:01:01.147Z,6.00
2023-05-11T21:03:53.628Z,5.00
2023-05-11T21:06:29.747Z,5.20
2023-05-11T21:09:09.820Z,5.80
2023-05-11T21:11:55.603Z,5.40
2023-05-11T21:14:36.368Z,5.30
2023-05-11T21:17:15.444Z,5.10
2023-05-11T21:19:57.941Z,5.10
2023-05-11T21:22:35.571Z,5.40
2023-05-11T21:25:13.011Z,6.40
2023-05-11T21:27:50.219Z,5.30
2023-05-11T21:30:34.053Z,5.60
2023-05-11T21:33:18.187Z,6.30
2023-05-11T21:36:13.695Z,5.30
2023-05-11T21:38:48.843Z,5.80
2023-05-11T21:41:28.791Z,5.60
2023-05-11T21:44:07.813Z,5.40
2023-05-11T21:46:45.277Z,5.00
2023-05-11T21:49:24.858Z,5.60
2023-05-11T21:52:18.584Z,4.90
2023-05-11T21:54:57.281Z,5.10
2023-05-11T21:57:43.178Z,4.90
2023-05-11T22:00:29.399Z,4.90
2023-05-11T22:03:28.561Z,4.70
2023-05-11T22:06:13.219Z,4.30
2023-05-11T22:08:54.973Z,4.50
2023-05-11T22:11:49.590Z,4.50
2023-05-11T22:14:25.747Z,4.70
2023-05-11T22:17:13.182Z,4.40
2023-05-11T22:20:17.672Z,4.50
2023-05-11T22:22:53.483Z,4.40
2023-05-11T22:25:36.904Z,4.50
2023-05-11T22:28:18.606Z,4.40
2023-05-11T22:31:09.860Z,6.00
2023-05-11T22:33:45.544Z,4.20
2023-05-11T22:36:25.457Z,4.70
2023-05-11T22:39:02.748Z,4.10
2023-05-11T22:41:39.392Z,4.00
2023-05-11T22:44:19.864Z,4.10
2023-05-11T22:47:03.712Z,4.30
2023-05-11T22:49:46.587Z,4.10
2023-05-11T22:52:22.240Z,3.90
2023-05-11T22:55:18.372Z,3.90
2023-05-11T22:57:55.314Z,4.30
2023-05-11T23:00:36.703Z,4.30
2023-05-11T23:03:12.469Z,4.00
2023-05-11T23:05:48.262Z,3.90
2023-05-11T23:08:24.138Z,4.00
2023-05-11T23:10:59.720Z,4.30
2023-05-11T23:13:35.988Z,4.30
2023-05-11T23:16:12.980Z,4.30
2023-05-11T23:18:49.988Z,4.30
2023-05-11T23:21:27.182Z,4.30
2023-05-11T23:24:03.152Z,4.30
2023-05-11T23:26:40.739Z,4.60
2023-05-11T23:29:15.489Z,4.20
2023-05-11T23:31:54.601Z,4.30
2023-05-11T23:34:31.992Z,4.50
2023-05-11T23:37:08.867Z,4.80
2023-05-11T23:39:45.137Z,4.90
2023-05-11T23:42:21.865Z,4.40
2023-05-11T23:45:00.968Z,4.60
2023-05-11T23:47:38.552Z,4.50
2023-05-11T23:50:24.174Z,4.90
2023-05-11T23:52:59.283Z,4.80
2023-05-11T23:55:36.468Z,5.00
2023-05-11T23:58:14.234Z,4.90
